Time;durP1;ratioP1;P1;durP2;ratioP2;P2;SDS_P1;SDS_P2;PMS_P1;PMS_P2;Temp;Humidity;BMP_temperature;BMP_pressure;BME280_temperature;BME280_humidity;BME280_pressure;Samples;Min_cycle;Max_cycle;Signal;HPM_P1;HPM_P2
2021/12/05 00:22:17;;;;;;;69.13;20.00;;;4.00;99.90;;;;;;5041312;28;20055;-71
2021/12/05 00:24:48;;;;;;;62.90;19.90;;;4.10;99.90;;;;;;5059153;28;20059;-70
2021/12/05 00:27:23;;;;;;;55.00;19.20;;;4.10;99.90;;;;;;5075646;28;20051;-70
2021/12/05 00:57:56;;;;;;;39.63;14.43;;;4.30;99.90;;;;;;5010043;28;20094;-70
2021/12/05 01:09:34;;;;;;;34.45;12.70;;;4.30;99.90;;;;;;5020080;28;20134;-70
2021/12/05 01:14:39;;;;;;;33.28;11.07;;;4.30;99.90;;;;;;5092922;28;20048;-70
2021/12/05 01:17:07;;;;;;;33.90;11.65;;;4.30;99.90;;;;;;5057893;28;20059;-72
2021/12/05 01:19:34;;;;;;;32.17;10.98;;;4.30;99.90;;;;;;5058412;28;20377;-71
2021/12/05 01:22:05;;;;;;;34.53;12.70;;;4.30;99.90;;;;;;5074164;28;20039;-71
2021/12/05 01:27:42;;;;;;;37.05;12.00;;;4.20;99.90;;;;;;5035400;28;20048;-70
2021/12/05 01:30:24;;;;;;;41.42;12.77;;;4.20;99.90;;;;;;5059181;28;20487;-70
2021/12/05 02:15:57;;;;;;;29.15;9.38;;;4.00;99.90;;;;;;5009457;28;20502;-71
2021/12/05 02:35:21;;;;;;;24.30;8.98;;;4.00;99.90;;;;;;5031780;28;20064;-71
2021/12/05 02:43:10;;;;;;;23.13;9.57;;;3.90;99.90;;;;;;5032621;28;20048;-71
2021/12/05 02:45:46;;;;;;;21.25;9.05;;;3.90;99.90;;;;;;5017733;28;20045;-71
2021/12/05 02:48:12;;;;;;;30.55;9.07;;;3.90;99.90;;;;;;5041438;28;20400;-70
2021/12/05 02:50:39;;;;;;;20.08;8.55;;;3.90;99.90;;;;;;5057335;28;20131;-70
2021/12/05 02:53:18;;;;;;;23.27;8.63;;;3.90;99.90;;;;;;5040818;28;20522;-70
2021/12/05 02:55:46;;;;;;;31.23;10.27;;;3.90;99.90;;;;;;5040674;28;20047;-70
2021/12/05 02:58:31;;;;;;;20.17;8.77;;;3.80;99.90;;;;;;5040536;28;20094;-70
2021/12/05 03:03:27;;;;;;;24.38;10.25;;;3.90;99.90;;;;;;5056830;28;20056;-70
2021/12/05 03:06:09;;;;;;;22.83;9.27;;;3.90;99.90;;;;;;5057243;28;20068;-71
2021/12/05 03:08:45;;;;;;;20.05;7.95;;;3.90;99.90;;;;;;5028570;28;20135;-71
2021/12/05 03:11:12;;;;;;;18.83;9.10;;;4.00;99.90;;;;;;5040708;28;20048;-71
2021/12/05 03:13:42;;;;;;;20.42;8.98;;;4.00;99.90;;;;;;5057680;28;20045;-71
2021/12/05 03:16:14;;;;;;;25.55;10.02;;;4.00;99.90;;;;;;5023881;28;20040;-71
2021/12/05 03:18:41;;;;;;;20.70;8.43;;;4.10;99.90;;;;;;5056719;28;20102;-71
2021/12/05 03:21:08;;;;;;;27.90;10.30;;;4.00;99.90;;;;;;5056764;28;20047;-71
2021/12/05 03:23:39;;;;;;;26.48;9.25;;;4.00;99.90;;;;;;5056665;28;20048;-71
2021/12/05 03:26:07;;;;;;;26.42;10.57;;;4.10;99.90;;;;;;5040057;28;20044;-70
2021/12/05 03:28:34;;;;;;;21.42;10.02;;;4.10;99.90;;;;;;5058468;28;20140;-71
2021/12/05 03:31:01;;;;;;;24.45;10.05;;;4.00;99.90;;;;;;5076464;28;20048;-71
2021/12/05 03:33:27;;;;;;;27.20;10.63;;;4.00;99.90;;;;;;5076548;28;20088;-71
2021/12/05 03:35:53;;;;;;;30.70;10.93;;;4.00;99.90;;;;;;5094916;28;20040;-71
2021/12/05 03:38:19;;;;;;;25.92;10.85;;;4.00;99.90;;;;;;5076463;28;20052;-70
2021/12/05 03:40:46;;;;;;;27.17;10.48;;;4.00;99.90;;;;;;5094853;28;20044;-71
2021/12/05 03:43:16;;;;;;;24.38;10.35;;;3.90;99.90;;;;;;5076183;28;20056;-72
2021/12/05 03:45:46;;;;;;;25.08;10.73;;;3.90;99.90;;;;;;5076176;28;20454;-72
2021/12/05 03:48:13;;;;;;;24.65;10.27;;;3.90;99.90;;;;;;5076347;28;20043;-70
2021/12/05 03:50:40;;;;;;;27.50;11.20;;;3.90;99.90;;;;;;5059940;28;20044;-71
2021/12/05 03:53:07;;;;;;;27.25;11.07;;;3.90;99.90;;;;;;5059324;28;20054;-70
2021/12/05 03:55:36;;;;;;;29.00;11.68;;;3.90;99.90;;;;;;5076083;28;20490;-71
2021/12/05 03:58:02;;;;;;;29.17;11.57;;;3.90;99.90;;;;;;5059056;28;20109;-71
2021/12/05 04:00:33;;;;;;;24.08;10.77;;;3.90;99.90;;;;;;5059294;28;20036;-71
2021/12/05 04:03:03;;;;;;;28.20;12.13;;;3.80;99.90;;;;;;5043570;28;20048;-71
2021/12/05 04:05:31;;;;;;;30.63;11.68;;;3.80;99.90;;;;;;5059157;28;20124;-71
2021/12/05 04:07:58;;;;;;;25.65;12.38;;;3.80;99.90;;;;;;5059481;28;20074;-71
2021/12/05 04:10:26;;;;;;;33.80;13.70;;;3.80;99.90;;;;;;5075932;28;20040;-71
2021/12/05 04:12:53;;;;;;;29.83;12.48;;;3.80;99.90;;;;;;5059058;28;20181;-71
2021/12/05 04:15:39;;;;;;;25.90;12.13;;;3.70;99.90;;;;;;5061685;28;20047;-71
2021/12/05 04:18:06;;;;;;;25.50;11.13;;;3.70;99.90;;;;;;5059013;28;20056;-72
2021/12/05 04:20:32;;;;;;;29.10;13.23;;;3.70;99.90;;;;;;5042406;28;20533;-70
2021/12/05 04:22:59;;;;;;;30.08;13.00;;;3.70;99.90;;;;;;5075774;28;20052;-71
2021/12/05 04:25:25;;;;;;;30.85;12.20;;;3.70;99.90;;;;;;5075352;28;20056;-71
2021/12/05 04:27:53;;;;;;;28.80;13.48;;;3.70;99.90;;;;;;5058409;28;20050;-71
2021/12/05 04:30:22;;;;;;;28.60;13.90;;;3.70;99.90;;;;;;5075033;28;20403;-71
2021/12/05 04:32:48;;;;;;;29.77;13.20;;;3.70;99.90;;;;;;5041880;28;20087;-71
2021/12/05 04:35:18;;;;;;;37.80;13.70;;;3.70;99.90;;;;;;5075229;28;20063;-71
2021/12/05 04:37:47;;;;;;;38.97;14.88;;;3.70;99.90;;;;;;5043826;28;20517;-71
2021/12/05 04:40:14;;;;;;;37.85;15.63;;;3.70;99.90;;;;;;5074834;28;20052;-70
2021/12/05 04:42:40;;;;;;;36.65;13.10;;;3.70;99.90;;;;;;5058315;28;20423;-70
2021/12/05 04:45:49;;;;;;;34.65;14.77;;;3.70;99.90;;;;;;5093298;28;20078;-70
2021/12/05 04:48:15;;;;;;;36.35;14.32;;;3.70;99.90;;;;;;5075297;28;20415;-71
2021/12/05 04:50:45;;;;;;;33.85;14.75;;;3.80;99.90;;;;;;5058650;28;20652;-70
2021/12/05 04:53:26;;;;;;;32.95;14.27;;;3.70;99.90;;;;;;5059195;28;20068;-71
2021/12/05 04:55:52;;;;;;;31.95;14.30;;;3.80;99.90;;;;;;5060642;28;20116;-71
2021/12/05 04:58:19;;;;;;;32.20;14.50;;;3.80;99.90;;;;;;5075231;28;20555;-69
2021/12/05 05:00:46;;;;;;;31.40;14.30;;;3.80;99.90;;;;;;5057993;28;20063;-69
2021/12/05 05:03:14;;;;;;;42.60;16.35;;;3.80;99.90;;;;;;5093232;28;20100;-69
2021/12/05 05:05:48;;;;;;;33.22;15.02;;;3.80;99.90;;;;;;5074961;28;20056;-69
2021/12/05 05:08:15;;;;;;;37.58;15.23;;;3.80;99.90;;;;;;5057399;28;20399;-69
2021/12/05 05:10:48;;;;;;;31.13;15.65;;;3.80;99.90;;;;;;5058076;28;20063;-69
2021/12/05 05:13:14;;;;;;;36.35;16.05;;;3.80;99.90;;;;;;5075057;28;20043;-69
2021/12/05 05:15:42;;;;;;;38.33;15.85;;;3.80;99.90;;;;;;5074381;28;20039;-69
2021/12/05 05:18:13;;;;;;;38.53;15.77;;;3.80;99.90;;;;;;5093134;28;20050;-69
2021/12/05 05:21:07;;;;;;;37.42;16.73;;;3.80;99.90;;;;;;5074427;28;20040;-69
2021/12/05 05:39:53;;;;;;;38.88;16.83;;;3.80;99.90;;;;;;5066036;28;20052;-70
2021/12/05 05:50:01;;;;;;;43.38;18.98;;;3.80;99.90;;;;;;5073892;28;20087;-71
2021/12/05 05:52:29;;;;;;;43.08;19.65;;;3.90;99.90;;;;;;5092454;28;20075;-71
2021/12/05 05:54:57;;;;;;;45.47;18.00;;;3.80;99.90;;;;;;5073910;28;20419;-71
2021/12/05 06:00:04;;;;;;;39.15;18.40;;;3.80;99.90;;;;;;5073521;28;20062;-71
2021/12/05 06:05:15;;;;;;;46.20;19.38;;;3.80;99.90;;;;;;5073773;28;20108;-71
2021/12/05 06:07:45;;;;;;;42.35;19.25;;;3.80;99.90;;;;;;5073697;28;20052;-71
2021/12/05 06:10:18;;;;;;;45.47;18.80;;;3.90;99.90;;;;;;5056605;28;20091;-71
2021/12/05 06:12:45;;;;;;;51.00;20.50;;;3.80;99.90;;;;;;5040522;28;20036;-71
2021/12/05 06:15:14;;;;;;;54.60;20.15;;;3.90;99.90;;;;;;5057216;28;20153;-72
2021/12/05 06:17:40;;;;;;;41.75;17.88;;;3.90;99.90;;;;;;5071869;28;20052;-70
2021/12/05 06:20:16;;;;;;;47.92;22.48;;;3.80;99.90;;;;;;5056867;28;20051;-71
2021/12/05 06:23:02;;;;;;;51.28;21.95;;;3.90;99.90;;;;;;5056723;28;20076;-71
2021/12/05 06:25:33;;;;;;;54.65;21.73;;;3.90;99.90;;;;;;5073584;28;20048;-71
2021/12/05 06:28:03;;;;;;;42.88;21.33;;;3.90;99.90;;;;;;5056530;28;20052;-71
2021/12/05 06:39:29;;;;;;;43.78;19.35;;;3.90;99.90;;;;;;5053417;28;20101;-71
2021/12/05 06:42:19;;;;;;;41.03;19.40;;;3.90;99.90;;;;;;5051221;28;20049;-71
2021/12/05 06:47:29;;;;;;;40.70;19.42;;;3.90;99.90;;;;;;5053305;28;20045;-71
2021/12/05 06:49:56;;;;;;;49.83;20.92;;;3.80;99.90;;;;;;5036102;28;20147;-71
2021/12/05 06:52:23;;;;;;;50.78;21.13;;;3.90;99.90;;;;;;5036617;28;20049;-72
2021/12/05 06:54:49;;;;;;;39.38;18.45;;;3.90;99.90;;;;;;5036486;28;20037;-71
2021/12/05 06:57:15;;;;;;;44.80;21.17;;;3.90;99.90;;;;;;5071169;28;20056;-71
2021/12/05 06:59:45;;;;;;;44.17;19.40;;;3.90;99.90;;;;;;5053138;28;20045;-71
2021/12/05 07:02:29;;;;;;;47.88;20.75;;;3.90;99.90;;;;;;5052742;28;20048;-71
2021/12/05 07:05:16;;;;;;;41.42;19.90;;;3.90;99.90;;;;;;5052740;28;20052;-71
2021/12/05 07:07:43;;;;;;;45.33;21.17;;;3.90;99.90;;;;;;5071379;28;20419;-71
2021/12/05 07:10:11;;;;;;;46.42;20.35;;;3.90;99.90;;;;;;5070994;28;20052;-71
2021/12/05 07:21:15;;;;;;;35.38;18.70;;;3.90;99.90;;;;;;5038876;28;20049;-71
2021/12/05 07:42:43;;;;;;;40.85;19.98;;;3.90;99.90;;;;;;5073179;28;20062;-71
2021/12/05 07:45:14;;;;;;;45.42;20.67;;;3.90;99.90;;;;;;5057576;28;20117;-71
2021/12/05 07:47:44;;;;;;;54.88;21.83;;;3.90;99.90;;;;;;5094797;28;20372;-71
2021/12/05 07:50:12;;;;;;;46.40;20.45;;;4.00;99.90;;;;;;5094413;28;20052;-71
2021/12/05 07:52:45;;;;;;;45.95;20.10;;;3.90;99.90;;;;;;5072913;28;20385;-72
2021/12/05 07:55:24;;;;;;;47.72;19.50;;;3.90;99.90;;;;;;5057668;28;20110;-70
2021/12/05 08:14:27;;;;;;;46.22;20.67;;;4.00;99.90;;;;;;5053692;28;20075;-71
2021/12/05 08:16:56;;;;;;;41.00;19.70;;;4.00;99.90;;;;;;5035870;28;20132;-77
2021/12/05 08:19:22;;;;;;;42.92;19.77;;;3.90;99.90;;;;;;5039375;28;20112;-69
2021/12/05 08:21:55;;;;;;;44.13;18.70;;;3.90;99.90;;;;;;5050925;28;20450;-72
2021/12/05 08:24:33;;;;;;;37.25;17.70;;;4.00;99.90;;;;;;5037474;28;20048;-70
2021/12/05 08:27:00;;;;;;;38.38;17.35;;;3.90;99.90;;;;;;5034201;28;20048;-70
2021/12/05 08:29:43;;;;;;;41.90;18.08;;;3.90;99.90;;;;;;5052713;28;20056;-70
2021/12/05 08:32:36;;;;;;;47.35;18.98;;;3.90;99.90;;;;;;5017020;28;20056;-69
2021/12/05 08:35:17;;;;;;;43.92;17.45;;;3.90;99.90;;;;;;5035786;28;20463;-70
2021/12/05 09:25:45;;;;;;;27.92;11.77;;;3.90;99.90;;;;;;5031167;28;20049;-67
2021/12/05 09:39:18;;;;;;;27.88;11.98;;;3.90;99.90;;;;;;5058281;28;20502;-70
2021/12/05 10:11:58;;;;;;;33.35;13.10;;;4.10;99.90;;;;;;5090028;28;20414;-69
2021/12/05 10:14:36;;;;;;;31.38;12.85;;;4.10;99.90;;;;;;5070988;28;20048;-69
2021/12/05 10:20:26;;;;;;;28.67;12.43;;;4.10;99.90;;;;;;5088884;28;20407;-70
2021/12/05 10:37:14;;;;;;;29.55;12.38;;;4.30;99.90;;;;;;5050723;28;20044;-71
2021/12/05 10:39:40;;;;;;;;;;;4.30;99.90;;;;;;5048277;28;20056;-71
2021/12/05 10:42:38;;;;;;;33.92;12.85;;;4.30;99.90;;;;;;5059522;28;19924;-70
2021/12/05 10:45:31;;;;;;;30.30;12.88;;;4.40;99.90;;;;;;5030090;28;20500;-70
2021/12/05 10:48:01;;;;;;;28.00;11.88;;;4.40;99.90;;;;;;5048318;28;20040;-71
2021/12/05 10:50:43;;;;;;;34.38;14.85;;;4.40;99.90;;;;;;5067486;28;20500;-71
2021/12/05 10:53:38;;;;;;;25.60;13.05;;;4.40;99.90;;;;;;5051411;28;20094;-71
2021/12/05 10:56:33;;;;;;;32.40;11.63;;;4.50;99.90;;;;;;5051006;28;20047;-69
2021/12/05 10:59:11;;;;;;;28.80;13.03;;;4.50;99.90;;;;;;5070054;28;20040;-70
2021/12/05 11:01:41;;;;;;;27.15;12.27;;;4.50;99.90;;;;;;5035495;28;20332;-70
2021/12/05 11:04:31;;;;;;;30.10;13.60;;;4.50;99.90;;;;;;5032566;28;20049;-70
2021/12/05 11:07:10;;;;;;;31.77;12.93;;;4.60;99.90;;;;;;5050398;28;20071;-70
2021/12/05 11:09:41;;;;;;;33.60;13.18;;;4.60;99.90;;;;;;5036780;28;20507;-70
2021/12/05 11:12:23;;;;;;;26.35;12.98;;;4.60;99.90;;;;;;5053364;28;20040;-71
2021/12/05 11:15:00;;;;;;;28.73;12.07;;;4.60;99.90;;;;;;5052274;28;20053;-71
2021/12/05 11:17:50;;;;;;;25.63;12.32;;;4.70;99.90;;;;;;5054618;28;20057;-71
2021/12/05 11:20:28;;;;;;;38.17;13.48;;;4.70;99.90;;;;;;5032017;28;20140;-71
2021/12/05 11:22:54;;;;;;;27.17;13.13;;;4.70;99.90;;;;;;5034922;28;20072;-70
2021/12/05 11:25:24;;;;;;;28.70;14.48;;;4.70;99.90;;;;;;5045498;28;20551;-70
2021/12/05 11:27:58;;;;;;;33.22;13.77;;;4.80;99.90;;;;;;5059086;28;20045;-70
2021/12/05 11:30:31;;;;;;;26.60;13.50;;;4.80;99.90;;;;;;5025531;28;20073;-70
2021/12/05 11:33:19;;;;;;;31.38;13.30;;;4.80;99.90;;;;;;5047615;28;20059;-70
2021/12/05 11:35:57;;;;;;;27.48;13.77;;;4.90;99.90;;;;;;5046783;28;20057;-70
2021/12/05 11:38:25;;;;;;;31.85;13.95;;;4.90;99.90;;;;;;5054407;28;20055;-71
2021/12/05 11:41:06;;;;;;;34.72;14.43;;;4.90;99.90;;;;;;5054289;28;20098;-71
2021/12/05 11:43:46;;;;;;;26.95;13.82;;;4.90;99.90;;;;;;5055168;28;20199;-71
2021/12/05 11:46:14;;;;;;;31.08;13.98;;;4.90;99.90;;;;;;5037271;28;20049;-69
2021/12/05 11:48:57;;;;;;;33.45;13.70;;;4.90;99.90;;;;;;5054247;28;20059;-70
2021/12/05 11:51:55;;;;;;;31.92;13.95;;;4.90;99.90;;;;;;5063464;28;20044;-70
2021/12/05 11:54:29;;;;;;;34.50;14.38;;;4.90;99.90;;;;;;4994526;28;20520;-68
2021/12/05 11:57:11;;;;;;;28.35;14.52;;;5.00;99.90;;;;;;4978555;28;20058;-68
2021/12/05 11:59:48;;;;;;;29.73;12.48;;;5.00;99.90;;;;;;4978648;28;20056;-67
2021/12/05 12:02:19;;;;;;;28.10;13.25;;;5.00;99.90;;;;;;4978338;28;20509;-70
2021/12/05 12:05:07;;;;;;;32.63;13.60;;;5.00;99.90;;;;;;4993222;28;20089;-72
2021/12/05 12:08:09;;;;;;;28.35;13.63;;;5.10;99.90;;;;;;4995076;28;20050;-73
2021/12/05 12:10:42;;;;;;;32.05;13.40;;;5.00;99.90;;;;;;4975074;28;20050;-72
2021/12/05 12:13:35;;;;;;;29.15;13.90;;;5.00;99.90;;;;;;4974987;28;20129;-72
2021/12/05 12:16:07;;;;;;;26.63;13.70;;;5.10;99.90;;;;;;4943078;28;20067;-70
2021/12/05 12:18:48;;;;;;;28.13;13.05;;;5.10;99.90;;;;;;4974874;28;20046;-73
2021/12/05 12:21:19;;;;;;;26.27;12.15;;;5.10;99.90;;;;;;4960482;28;20147;-71
2021/12/05 12:23:48;;;;;;;28.95;13.25;;;5.20;99.90;;;;;;4959462;28;20054;-78
2021/12/05 12:26:25;;;;;;;29.55;12.38;;;5.10;99.90;;;;;;4958681;28;20046;-78
2021/12/05 12:28:55;;;;;;;30.55;13.23;;;5.10;99.90;;;;;;4959300;28;20080;-72
2021/12/05 12:31:41;;;;;;;24.38;12.02;;;5.10;99.90;;;;;;5041708;28;20512;-80
2021/12/05 12:34:13;;;;;;;21.77;11.52;;;5.10;99.90;;;;;;5057489;28;20047;-70
2021/12/05 12:36:48;;;;;;;27.50;13.20;;;5.10;99.90;;;;;;5054149;28;20044;-70
2021/12/05 12:39:16;;;;;;;26.45;12.52;;;5.10;99.90;;;;;;5054112;28;20075;-69
2021/12/05 12:42:16;;;;;;;28.35;12.05;;;5.10;99.90;;;;;;5049317;28;20104;-79
2021/12/05 12:45:06;;;;;;;22.77;11.20;;;5.00;99.90;;;;;;5055309;28;20062;-70
2021/12/05 12:47:41;;;;;;;28.25;12.82;;;5.10;99.90;;;;;;5056564;28;20051;-70
2021/12/05 12:50:34;;;;;;;27.63;12.38;;;5.00;99.90;;;;;;5056117;28;20114;-71
2021/12/05 12:53:09;;;;;;;24.85;11.55;;;5.00;99.90;;;;;;5074130;28;20044;-71
2021/12/05 12:55:39;;;;;;;25.23;11.75;;;5.00;99.90;;;;;;5074773;28;20055;-71
2021/12/05 12:58:08;;;;;;;27.83;13.18;;;5.00;99.90;;;;;;5040524;28;20495;-71
2021/12/05 13:00:43;;;;;;;25.05;11.73;;;5.10;99.90;;;;;;5073786;28;20040;-71
2021/12/05 13:03:25;;;;;;;28.08;11.55;;;5.10;99.90;;;;;;5057415;28;20051;-71
2021/12/05 13:07:21;;;;;;;23.52;11.82;;;5.10;99.90;;;;;;5057487;28;20410;-73
2021/12/05 13:11:24;;;;;;;26.20;13.65;;;5.10;99.90;;;;;;5054862;28;20514;-67
2021/12/05 13:14:07;;;;;;;26.75;12.95;;;5.10;99.90;;;;;;5054273;28;20048;-72
2021/12/05 13:16:37;;;;;;;33.53;14.88;;;5.20;99.90;;;;;;5057495;28;20044;-71
2021/12/05 13:19:11;;;;;;;29.45;12.80;;;5.10;99.90;;;;;;5074280;28;20047;-71
2021/12/05 13:22:06;;;;;;;27.25;12.63;;;5.10;99.90;;;;;;5057195;28;20067;-71
2021/12/05 13:24:46;;;;;;;24.98;13.70;;;5.20;99.90;;;;;;5047917;28;20088;-71
2021/12/05 13:27:32;;;;;;;26.52;13.00;;;5.20;99.90;;;;;;5058821;28;20041;-72
2021/12/05 13:29:59;;;;;;;29.88;14.85;;;5.20;99.90;;;;;;5048283;28;20063;-71
2021/12/05 13:32:29;;;;;;;25.90;12.50;;;5.20;99.90;;;;;;5018075;28;20489;-71
2021/12/05 13:35:01;;;;;;;32.92;13.63;;;5.20;99.90;;;;;;5053451;28;20063;-71
2021/12/05 13:37:37;;;;;;;33.55;13.20;;;5.20;99.90;;;;;;5026302;28;20045;-71
2021/12/05 13:40:23;;;;;;;25.80;12.70;;;5.20;99.90;;;;;;5037180;28;20044;-74
2021/12/05 13:43:05;;;;;;;32.10;12.85;;;5.20;99.90;;;;;;5050395;28;20403;-72
2021/12/05 13:45:43;;;;;;;26.90;13.15;;;5.20;99.90;;;;;;5048973;28;20048;-70
2021/12/05 13:48:11;;;;;;;29.42;13.05;;;5.20;99.90;;;;;;5045056;28;20565;-71
2021/12/05 13:50:51;;;;;;;30.95;14.50;;;5.10;99.90;;;;;;5036985;28;20053;-85
2021/12/05 13:53:21;;;;;;;28.33;12.35;;;5.20;99.90;;;;;;5050379;28;20052;-71
2021/12/05 13:56:04;;;;;;;34.78;13.98;;;5.20;99.90;;;;;;5035444;28;20435;-72
2021/12/05 13:59:06;;;;;;;27.63;13.90;;;5.20;99.90;;;;;;5049124;28;20063;-72
2021/12/05 14:01:46;;;;;;;28.40;14.25;;;5.10;99.90;;;;;;5013699;28;20124;-71
2021/12/05 14:04:27;;;;;;;29.13;14.05;;;5.10;99.90;;;;;;4997581;28;20041;-71
2021/12/05 14:07:06;;;;;;;32.42;13.98;;;5.10;99.90;;;;;;5039094;28;20538;-72
2021/12/05 14:09:51;;;;;;;27.05;13.68;;;5.10;99.90;;;;;;5016117;28;20055;-71
2021/12/05 14:12:31;;;;;;;26.07;13.63;;;5.10;99.90;;;;;;5032466;28;20047;-80
2021/12/05 14:15:02;;;;;;;28.00;13.68;;;5.10;99.90;;;;;;5031184;28;20532;-71
2021/12/05 14:17:33;;;;;;;27.83;13.90;;;5.10;99.90;;;;;;5047704;28;20055;-70
2021/12/05 14:20:21;;;;;;;30.08;15.10;;;5.00;99.90;;;;;;5030899;28;20098;-71
2021/12/05 14:22:49;;;;;;;28.30;13.35;;;5.00;99.90;;;;;;5014198;28;20136;-77
2021/12/05 14:25:26;;;;;;;31.70;14.00;;;5.00;99.90;;;;;;5016081;28;20084;-76
2021/12/05 14:28:01;;;;;;;33.50;14.27;;;5.10;99.90;;;;;;5031664;28;20107;-76
2021/12/05 14:30:29;;;;;;;;;;;5.00;99.90;;;;;;5053930;28;20057;-74
2021/12/05 14:32:59;;;;;;;29.67;14.65;;;5.00;99.90;;;;;;5081685;28;20458;-80
2021/12/05 14:35:38;;;;;;;35.67;16.58;;;5.00;99.90;;;;;;5055418;28;20048;-74
2021/12/05 14:38:07;;;;;;;32.15;14.25;;;4.90;99.90;;;;;;5055091;28;20080;-71
2021/12/05 14:40:35;;;;;;;30.40;13.88;;;4.90;99.90;;;;;;5068886;28;20179;-71
2021/12/05 14:43:05;;;;;;;30.95;14.75;;;4.90;99.90;;;;;;5049758;28;20059;-73
2021/12/05 14:45:39;;;;;;;30.27;14.95;;;4.90;99.90;;;;;;5072804;28;20064;-73
2021/12/05 14:48:11;;;;;;;28.75;14.15;;;4.90;99.90;;;;;;5088297;28;20062;-71
2021/12/05 14:50:39;;;;;;;30.73;15.93;;;4.90;99.90;;;;;;5074538;28;20076;-71
2021/12/05 14:53:13;;;;;;;34.40;15.55;;;4.90;99.90;;;;;;5075000;28;20190;-70
2021/12/05 14:55:40;;;;;;;30.27;15.15;;;4.90;99.90;;;;;;5058887;28;20055;-72
2021/12/05 14:58:16;;;;;;;32.80;16.45;;;4.90;99.90;;;;;;5071284;28;20048;-71
2021/12/05 15:00:49;;;;;;;32.08;16.08;;;4.90;99.90;;;;;;5075321;28;20044;-72
2021/12/05 15:03:22;;;;;;;34.53;16.88;;;4.90;99.90;;;;;;5056755;28;20056;-71
2021/12/05 15:05:53;;;;;;;29.25;16.10;;;4.90;99.90;;;;;;5059206;28;20067;-71
2021/12/05 15:08:50;;;;;;;31.65;16.10;;;4.90;99.90;;;;;;5072515;28;20063;-71
2021/12/05 15:11:18;;;;;;;34.13;16.65;;;4.90;99.90;;;;;;5023619;28;20088;-69
2021/12/05 15:13:44;;;;;;;41.88;17.90;;;4.80;99.90;;;;;;5006513;28;20049;-68
2021/12/05 15:16:10;;;;;;;34.65;17.45;;;4.80;99.90;;;;;;5016234;28;20099;-70
2021/12/05 15:18:39;;;;;;;31.58;16.25;;;4.80;99.90;;;;;;5033568;28;20144;-71
2021/12/05 15:21:06;;;;;;;34.30;16.77;;;4.90;99.90;;;;;;5018296;28;20189;-71
2021/12/05 15:23:40;;;;;;;30.90;16.52;;;4.80;99.90;;;;;;5034143;28;20065;-71
2021/12/05 15:26:07;;;;;;;33.92;15.23;;;4.80;99.90;;;;;;5032370;28;20059;-70
2021/12/05 15:28:35;;;;;;;33.35;15.57;;;4.80;99.90;;;;;;5007672;28;20041;-70
2021/12/05 15:31:02;;;;;;;34.20;16.05;;;4.80;99.90;;;;;;5014800;28;20083;-69
2021/12/05 15:33:34;;;;;;;33.35;15.52;;;4.70;99.90;;;;;;5005917;28;20111;-71
2021/12/05 15:36:01;;;;;;;30.67;15.43;;;4.70;99.90;;;;;;4989391;28;20616;-71
2021/12/05 15:38:33;;;;;;;33.17;15.27;;;4.70;99.90;;;;;;4986530;28;20069;-71
2021/12/05 15:41:15;;;;;;;29.83;14.45;;;4.70;99.90;;;;;;4981521;28;20060;-70
2021/12/05 15:43:44;;;;;;;33.93;15.37;;;4.70;99.90;;;;;;4986905;28;20073;-71
2021/12/05 15:46:31;;;;;;;27.00;14.93;;;4.70;99.90;;;;;;4986172;28;20112;-71
2021/12/05 15:48:57;;;;;;;32.28;15.00;;;4.70;99.90;;;;;;4986346;28;20109;-69
2021/12/05 15:51:24;;;;;;;28.83;16.15;;;4.70;99.90;;;;;;4973894;28;20488;-69
2021/12/05 15:53:50;;;;;;;30.35;17.50;;;4.70;99.90;;;;;;4998461;28;20050;-69
2021/12/05 15:56:20;;;;;;;31.23;15.70;;;4.70;99.90;;;;;;4967692;28;20202;-67
2021/12/05 15:59:00;;;;;;;31.15;15.48;;;4.70;99.90;;;;;;4992971;28;20112;-69
2021/12/05 16:01:29;;;;;;;32.08;15.55;;;4.70;99.90;;;;;;4985948;28;20051;-69
2021/12/05 16:04:01;;;;;;;31.00;15.35;;;4.70;99.90;;;;;;4977404;28;20050;-69
2021/12/05 16:06:35;;;;;;;27.65;14.98;;;4.70;99.90;;;;;;4990876;28;20046;-69
2021/12/05 16:09:12;;;;;;;29.92;15.95;;;4.60;99.90;;;;;;4959334;28;20054;-72
2021/12/05 16:11:38;;;;;;;30.35;15.52;;;4.60;99.90;;;;;;4981946;28;20042;-72
2021/12/05 16:14:12;;;;;;;;;;;4.60;99.90;;;;;;5010036;28;20417;-70
2021/12/05 16:16:38;;;;;;;31.58;14.57;;;4.60;99.90;;;;;;4991479;28;19925;-70
2021/12/05 16:19:13;;;;;;;28.73;15.20;;;4.60;99.90;;;;;;5015740;28;20049;-76
2021/12/05 16:21:39;;;;;;;34.20;16.35;;;4.60;99.90;;;;;;5031666;28;20125;-70
2021/12/05 16:24:19;;;;;;;26.73;13.80;;;4.60;99.90;;;;;;4993208;28;20611;-75
2021/12/05 16:26:51;;;;;;;28.55;13.57;;;4.60;99.90;;;;;;4993559;28;20636;-80
2021/12/05 16:29:22;;;;;;;32.25;14.55;;;4.60;99.90;;;;;;4993584;28;20050;-79
2021/12/05 16:31:57;;;;;;;29.73;14.98;;;4.50;99.90;;;;;;4993454;28;20084;-76
2021/12/05 16:34:27;;;;;;;;;;;4.50;99.90;;;;;;4993801;28;20062;-75
2021/12/05 16:37:09;;;;;;;26.70;12.98;;;4.50;99.90;;;;;;5010178;28;19930;-79
2021/12/05 16:39:42;;;;;;;26.17;14.15;;;4.50;99.90;;;;;;4979874;28;20140;-76
2021/12/05 16:42:10;;;;;;;24.05;13.48;;;4.50;99.90;;;;;;4977450;28;20128;-79
2021/12/05 16:44:40;;;;;;;23.10;12.77;;;4.50;99.90;;;;;;4973709;28;20517;-74
2021/12/05 16:47:17;;;;;;;25.83;13.57;;;4.40;99.90;;;;;;5002978;28;20066;-81
2021/12/05 16:49:47;;;;;;;24.08;12.40;;;4.40;99.90;;;;;;4993225;28;20413;-80
2021/12/05 16:52:29;;;;;;;22.30;12.73;;;4.40;99.90;;;;;;4993592;28;20054;-79
2021/12/05 16:55:29;;;;;;;26.95;11.93;;;4.40;99.90;;;;;;5002435;28;20052;-77
2021/12/05 16:58:06;;;;;;;18.20;10.48;;;4.40;99.90;;;;;;5054951;28;20064;-81
2021/12/05 17:00:41;;;;;;;19.92;10.48;;;4.30;99.90;;;;;;5054497;28;20522;-76
2021/12/05 17:03:08;;;;;;;19.00;10.95;;;4.30;99.90;;;;;;5071001;28;20051;-75
2021/12/05 17:05:44;;;;;;;25.40;12.48;;;4.30;99.90;;;;;;5053358;28;20052;-75
2021/12/05 17:08:19;;;;;;;18.80;10.52;;;4.30;99.90;;;;;;5050183;28;20060;-76
2021/12/05 17:10:51;;;;;;;;;;;4.20;99.90;;;;;;5066648;28;20056;-74
2021/12/05 17:13:32;;;;;;;18.52;10.43;;;4.20;99.90;;;;;;5036706;28;19964;-78
2021/12/05 17:16:01;;;;;;;20.02;10.45;;;4.10;99.90;;;;;;5037024;28;20044;-76
2021/12/05 17:18:31;;;;;;;19.65;10.98;;;4.10;99.90;;;;;;5054429;28;20045;-73
2021/12/05 17:21:05;;;;;;;21.95;11.82;;;4.10;99.90;;;;;;5053363;28;20051;-80
2021/12/05 17:23:39;;;;;;;22.25;12.82;;;4.10;99.90;;;;;;5036233;28;20098;-74
2021/12/05 17:26:16;;;;;;;22.70;12.32;;;4.00;99.90;;;;;;5036254;28;20052;-76
2021/12/05 17:28:55;;;;;;;23.50;14.15;;;4.00;99.90;;;;;;5052621;28;20088;-73
2021/12/05 17:31:33;;;;;;;22.45;12.27;;;3.90;99.90;;;;;;5065539;28;20087;-79
2021/12/05 17:34:05;;;;;;;24.55;13.60;;;3.90;99.90;;;;;;5057166;28;20052;-77
2021/12/05 17:36:30;;;;;;;23.95;13.43;;;3.90;99.90;;;;;;5072908;28;20048;-74
2021/12/05 17:39:01;;;;;;;24.80;12.98;;;3.90;99.90;;;;;;5072407;28;20047;-79
2021/12/05 17:41:29;;;;;;;24.45;13.60;;;3.90;99.90;;;;;;5072884;28;20048;-77
2021/12/05 17:43:55;;;;;;;25.38;13.10;;;3.80;99.90;;;;;;5055627;28;20087;-78
2021/12/05 17:46:21;;;;;;;25.63;13.25;;;3.90;99.90;;;;;;5072452;28;20089;-76
2021/12/05 17:48:48;;;;;;;24.48;14.43;;;3.80;99.90;;;;;;5073625;28;20047;-81
2021/12/05 17:51:14;;;;;;;22.52;13.20;;;3.80;99.90;;;;;;5056893;28;20084;-75
2021/12/05 17:53:41;;;;;;;25.20;12.95;;;3.80;99.90;;;;;;5071002;28;20109;-77
2021/12/05 17:56:35;;;;;;;25.13;14.55;;;3.80;99.90;;;;;;5072554;28;20133;-74
2021/12/05 17:59:13;;;;;;;29.25;15.68;;;3.80;99.90;;;;;;5055245;28;20109;-73
2021/12/05 18:04:30;;;;;;;26.40;15.57;;;3.80;99.90;;;;;;5072448;28;20040;-73
2021/12/05 18:06:57;;;;;;;32.40;17.63;;;3.80;99.90;;;;;;5072604;28;20062;-74
2021/12/05 18:09:24;;;;;;;31.15;16.75;;;3.80;99.90;;;;;;5072364;28;20052;-75
2021/12/05 18:11:50;;;;;;;29.02;16.73;;;3.80;99.90;;;;;;5055033;28;20056;-75
2021/12/05 18:14:17;;;;;;;29.92;16.50;;;3.80;99.90;;;;;;5072101;28;20060;-74
2021/12/05 18:16:46;;;;;;;32.30;16.98;;;3.80;99.90;;;;;;5071479;28;20093;-73
2021/12/05 18:19:33;;;;;;;28.85;16.23;;;3.70;99.90;;;;;;5071940;28;20089;-79
2021/12/05 18:22:04;;;;;;;32.00;16.95;;;3.70;99.90;;;;;;5072361;28;20101;-71
2021/12/05 18:24:32;;;;;;;26.67;14.80;;;3.70;99.90;;;;;;5087903;28;20600;-74
2021/12/05 18:27:01;;;;;;;28.25;16.48;;;3.80;99.90;;;;;;5055492;28;20040;-73
2021/12/05 18:29:28;;;;;;;29.90;17.30;;;3.70;99.90;;;;;;5038746;28;20138;-71
2021/12/05 18:31:56;;;;;;;30.27;17.58;;;3.70;99.90;;;;;;5054314;28;20131;-72
2021/12/05 18:34:27;;;;;;;27.92;16.02;;;3.70;99.90;;;;;;5070142;28;20404;-72
2021/12/05 18:36:55;;;;;;;27.67;14.90;;;3.70;99.90;;;;;;5051761;28;20056;-74
2021/12/05 18:39:45;;;;;;;23.42;13.40;;;3.60;99.90;;;;;;5054073;28;20537;-73